Time;durP1;ratioP1;P1;durP2;ratioP2;P2;SDS_P1;SDS_P2;PMS_P1;PMS_P2;Temp;Humidity;BMP_temperature;BMP_pressure;BME280_temperature;BME280_humidity;BME280_pressure;Samples;Min_cycle;Max_cycle;Signal;HPM_P1;HPM_P2
2021/12/26 00:00:18;;;;;;;;;;;1.60;91.10;;;;;;5082078;28;19935;-69
2021/12/26 00:02:44;;;;;;;;;;;1.60;91.20;;;;;;5095237;28;19921;-70
2021/12/26 00:05:10;;;;;;;;;;;1.60;91.20;;;;;;5084210;28;19924;-69
2021/12/26 00:07:35;;;;;;;;;;;1.50;91.20;;;;;;5090574;28;19926;-70
2021/12/26 00:10:01;;;;;;;;;;;1.60;91.20;;;;;;5086029;28;19958;-69
2021/12/26 00:12:27;;;;;;;;;;;1.60;91.20;;;;;;5084061;28;20402;-70
2021/12/26 00:14:52;;;;;;;;;;;1.60;91.10;;;;;;5088065;28;19919;-70
2021/12/26 00:17:18;;;;;;;;;;;1.60;91.20;;;;;;5084348;28;19916;-70
2021/12/26 00:19:43;;;;;;;;;;;1.60;91.30;;;;;;5103354;27;19951;-70
2021/12/26 00:22:09;;;;;;;;;;;1.60;91.30;;;;;;5082488;28;19914;-70
2021/12/26 00:24:35;;;;;;;;;;;1.60;91.20;;;;;;5090141;28;19908;-69
2021/12/26 00:27:00;;;;;;;;;;;1.60;91.30;;;;;;5086377;28;19999;-69
2021/12/26 00:29:26;;;;;;;;;;;1.60;91.20;;;;;;5086754;28;20006;-70
2021/12/26 00:31:52;;;;;;;;;;;1.60;91.20;;;;;;5082548;28;19919;-70
2021/12/26 00:34:17;;;;;;;;;;;1.60;91.20;;;;;;5088637;28;19912;-69
2021/12/26 00:36:43;;;;;;;;;;;1.60;91.20;;;;;;5080311;28;20443;-69
2021/12/26 00:39:09;;;;;;;;;;;1.60;91.20;;;;;;5089204;28;19920;-70
2021/12/26 00:41:39;;;;;;;;;;;1.60;91.10;;;;;;5081093;28;19912;-69
2021/12/26 00:44:05;;;;;;;;;;;1.60;91.20;;;;;;5086398;28;19924;-69
2021/12/26 00:46:31;;;;;;;;;;;1.60;91.30;;;;;;5083605;28;19912;-69
2021/12/26 00:48:56;;;;;;;;;;;1.60;91.30;;;;;;5087334;28;19994;-70
2021/12/26 00:51:22;;;;;;;;;;;1.60;91.20;;;;;;5082493;28;19912;-70
2021/12/26 00:53:48;;;;;;;;;;;1.60;91.20;;;;;;5085315;28;19947;-69
2021/12/26 00:56:13;;;;;;;;;;;1.60;91.20;;;;;;5086778;28;19923;-69
2021/12/26 00:58:39;;;;;;;;;;;1.60;91.20;;;;;;5087422;28;20006;-69
2021/12/26 01:01:04;;;;;;;;;;;1.60;91.20;;;;;;5080089;28;20303;-69
2021/12/26 01:03:30;;;;;;;;;;;1.60;91.10;;;;;;5077857;28;20337;-69
2021/12/26 01:05:56;;;;;;;;;;;1.60;91.20;;;;;;5084610;28;20320;-69
2021/12/26 01:08:26;;;;;;;;;;;1.60;91.20;;;;;;5083103;28;20422;-69
2021/12/26 01:10:57;;;;;;;;;;;1.60;91.10;;;;;;5089588;28;20372;-70
2021/12/26 01:13:33;;;;;;;;;;;1.60;91.20;;;;;;5083797;28;20415;-69
2021/12/26 01:16:00;;;;;;;;;;;1.60;91.20;;;;;;5080797;28;19908;-69
2021/12/26 01:18:27;;;;;;;;;;;1.60;91.20;;;;;;5081172;28;19940;-69
2021/12/26 01:21:00;;;;;;;;;;;1.60;91.20;;;;;;5088423;28;19923;-69
2021/12/26 01:23:27;;;;;;;;;;;1.70;91.10;;;;;;5079608;28;19912;-69
2021/12/26 01:25:52;;;;;;;;;;;1.60;91.10;;;;;;5082005;28;19951;-69
2021/12/26 01:28:19;;;;;;;;;;;1.60;91.20;;;;;;5077948;28;19955;-69
2021/12/26 01:30:45;;;;;;;;;;;1.60;91.20;;;;;;5086207;28;20316;-69
2021/12/26 01:33:12;;;;;;;;;;;1.60;91.10;;;;;;5082985;28;19912;-70
2021/12/26 01:35:38;;;;;;;;;;;1.70;91.20;;;;;;5078829;28;20347;-69
2021/12/26 01:38:04;;;;;;;;;;;1.60;91.20;;;;;;5082790;28;19962;-69
2021/12/26 01:40:34;;;;;;;;;;;1.60;91.20;;;;;;5083131;28;19927;-69
2021/12/26 01:43:02;;;;;;;;;;;1.60;91.20;;;;;;5086394;28;19908;-69
2021/12/26 01:45:27;;;;;;;;;;;1.60;91.10;;;;;;5081000;28;19909;-69
2021/12/26 01:47:58;;;;;;;;;;;1.60;91.20;;;;;;5079357;28;19977;-69
2021/12/26 01:50:23;;;;;;;;;;;1.60;91.00;;;;;;5079828;28;19913;-69
2021/12/26 01:52:49;;;;;;;;;;;1.60;91.10;;;;;;5083336;28;19919;-69
2021/12/26 01:55:23;;;;;;;;;;;1.60;91.10;;;;;;5079832;28;19926;-69
2021/12/26 01:57:50;;;;;;;;;;;1.60;91.10;;;;;;5083934;28;20430;-69
2021/12/26 02:00:16;;;;;;;;;;;1.60;91.10;;;;;;5080341;28;19948;-69
2021/12/26 02:02:42;;;;;;;;;;;1.60;91.10;;;;;;5079804;28;20362;-69
2021/12/26 02:05:08;;;;;;;;;;;1.60;91.10;;;;;;5077373;28;19913;-70
2021/12/26 02:07:33;;;;;;;;;;;1.60;91.10;;;;;;5091959;28;19931;-69
2021/12/26 02:09:59;;;;;;;;;;;1.60;91.10;;;;;;5078167;28;19923;-69
2021/12/26 02:12:24;;;;;;;;;;;1.60;91.20;;;;;;5083507;28;19923;-69
2021/12/26 02:14:50;;;;;;;;;;;1.60;91.20;;;;;;5079304;28;19919;-69
2021/12/26 02:17:16;;;;;;;;;;;1.60;91.10;;;;;;5088598;28;19923;-69
2021/12/26 02:19:42;;;;;;;;;;;1.60;91.10;;;;;;5085460;28;19912;-69
2021/12/26 02:22:18;;;;;;;;;;;1.60;91.10;;;;;;5089616;28;19927;-69
2021/12/26 02:27:32;;;;;;;;;;;1.60;91.10;;;;;;5079147;28;19941;-69
2021/12/26 02:30:13;;;;;;;;;;;1.60;91.00;;;;;;5085135;28;20022;-69
2021/12/26 02:32:39;;;;;;;;;;;1.60;90.90;;;;;;5084531;28;19913;-69
2021/12/26 02:35:05;;;;;;;;;;;1.60;90.90;;;;;;5083065;28;20280;-69
2021/12/26 02:37:30;;;;;;;;;;;1.60;90.90;;;;;;5078767;28;20256;-69
2021/12/26 02:39:56;;;;;;;;;;;1.60;90.90;;;;;;5085562;28;19962;-69
2021/12/26 02:42:22;;;;;;;;;;;1.60;91.00;;;;;;5081135;28;19916;-69
2021/12/26 02:44:48;;;;;;;;;;;1.60;90.80;;;;;;5087192;28;19931;-69
2021/12/26 02:47:28;;;;;;;;;;;1.60;91.10;;;;;;5080235;28;20375;-69
2021/12/26 02:49:57;;;;;;;;;;;1.60;90.90;;;;;;5085705;28;19910;-70
2021/12/26 02:52:22;;;;;;;;;;;1.60;91.00;;;;;;5082004;28;19934;-69
2021/12/26 02:54:48;;;;;;;;;;;1.60;90.90;;;;;;5091229;28;19908;-70
2021/12/26 02:57:13;;;;;;;;;;;1.60;91.10;;;;;;5082536;28;19920;-69
2021/12/26 02:59:39;;;;;;;;;;;1.50;91.00;;;;;;5082645;28;20007;-69
2021/12/26 03:02:04;;;;;;;;;;;1.60;91.10;;;;;;5077314;28;20307;-69
2021/12/26 03:04:30;;;;;;;;;;;1.60;91.00;;;;;;5084918;28;19989;-69
2021/12/26 03:07:02;;;;;;;;;;;1.60;90.90;;;;;;5074275;28;20369;-69
2021/12/26 03:09:30;;;;;;;;;;;1.50;90.90;;;;;;5085903;28;20586;-69
2021/12/26 03:11:56;;;;;;;;;;;1.60;91.00;;;;;;5083135;28;19920;-69
2021/12/26 03:14:21;;;;;;;;;;;1.60;90.90;;;;;;5085431;28;20349;-69
2021/12/26 03:16:48;;;;;;;;;;;1.60;91.00;;;;;;5096695;28;19923;-69
2021/12/26 03:19:14;;;;;;;;;;;1.50;91.00;;;;;;5083988;28;20356;-70
2021/12/26 03:21:39;;;;;;;;;;;1.50;90.90;;;;;;5087018;28;19912;-69
2021/12/26 03:24:05;;;;;;;;;;;1.50;91.00;;;;;;5082352;28;20395;-69
2021/12/26 03:26:31;;;;;;;;;;;1.60;91.00;;;;;;5085173;28;20018;-69
2021/12/26 03:28:56;;;;;;;;;;;1.60;91.00;;;;;;5083474;28;19912;-69
2021/12/26 03:31:21;;;;;;;;;;;1.60;91.00;;;;;;5078674;28;20250;-69
2021/12/26 03:33:47;;;;;;;;;;;1.50;91.00;;;;;;5082394;28;19913;-69
2021/12/26 03:36:12;;;;;;;;;;;1.50;90.90;;;;;;5082941;28;19917;-69
2021/12/26 03:38:38;;;;;;;;;;;1.50;90.90;;;;;;5082452;28;19945;-69
2021/12/26 03:41:04;;;;;;;;;;;1.50;90.90;;;;;;5074958;28;19952;-69
2021/12/26 03:43:29;;;;;;;;;;;1.60;91.00;;;;;;5084375;28;19924;-69
2021/12/26 03:45:55;;;;;;;;;;;1.50;91.00;;;;;;5082050;28;19915;-69
2021/12/26 03:48:22;;;;;;;;;;;1.50;91.00;;;;;;5081949;28;20008;-69
2021/12/26 03:50:47;;;;;;;;;;;1.50;91.00;;;;;;5090116;28;19908;-69
2021/12/26 03:53:14;;;;;;;;;;;1.50;91.00;;;;;;5085264;28;19920;-69
2021/12/26 03:55:40;;;;;;;;;;;1.50;91.00;;;;;;5078312;28;19912;-69
2021/12/26 03:58:07;;;;;;;;;;;1.50;90.90;;;;;;5084119;28;19920;-69
2021/12/26 04:00:34;;;;;;;;;;;1.60;90.80;;;;;;5079519;28;19919;-69
2021/12/26 04:02:59;;;;;;;;;;;1.50;90.90;;;;;;5083687;28;19916;-69
2021/12/26 04:05:25;;;;;;;;;;;1.50;90.90;;;;;;5077583;28;20318;-69
2021/12/26 04:07:50;;;;;;;;;;;1.50;90.90;;;;;;5087019;28;19951;-69
2021/12/26 04:10:16;;;;;;;;;;;1.50;90.80;;;;;;5080600;28;20420;-69
2021/12/26 04:12:46;;;;;;;;;;;1.50;90.80;;;;;;5086085;28;19920;-69
2021/12/26 04:15:13;;;;;;;;;;;1.50;90.80;;;;;;5074782;28;19913;-69
2021/12/26 04:17:38;;;;;;;;;;;1.50;90.70;;;;;;5117596;27;20071;-69
2021/12/26 04:20:05;;;;;;;;;;;1.50;90.80;;;;;;5076902;28;20084;-69
2021/12/26 04:22:30;;;;;;;;;;;1.50;90.80;;;;;;5084230;28;19919;-69
2021/12/26 04:24:57;;;;;;;;;;;1.50;90.90;;;;;;5085119;28;19923;-69
2021/12/26 04:27:24;;;;;;;;;;;1.50;90.90;;;;;;5082313;28;20019;-69
2021/12/26 04:29:50;;;;;;;;;;;1.50;90.90;;;;;;5082489;28;19908;-70
2021/12/26 04:32:16;;;;;;;;;;;1.40;91.00;;;;;;5083010;28;19958;-69
2021/12/26 04:34:41;;;;;;;;;;;1.50;91.00;;;;;;5081877;28;19908;-70
2021/12/26 04:37:07;;;;;;;;;;;1.50;91.00;;;;;;5084538;28;20369;-69
2021/12/26 04:39:32;;;;;;;;;;;1.50;90.80;;;;;;5081502;28;19948;-69
2021/12/26 04:41:58;;;;;;;;;;;1.40;90.90;;;;;;5079877;28;19918;-69
2021/12/26 04:44:25;;;;;;;;;;;1.40;90.90;;;;;;5084554;28;19999;-69
2021/12/26 04:46:51;;;;;;;;;;;1.50;90.80;;;;;;5082358;28;20404;-69
2021/12/26 04:49:17;;;;;;;;;;;1.50;90.90;;;;;;5089971;28;19908;-69
2021/12/26 04:51:42;;;;;;;;;;;1.40;90.90;;;;;;5079108;28;19916;-69
2021/12/26 04:54:08;;;;;;;;;;;1.50;91.00;;;;;;5082946;28;19909;-69
2021/12/26 04:56:34;;;;;;;;;;;1.40;91.10;;;;;;5077151;28;20408;-69
2021/12/26 04:58:59;;;;;;;;;;;1.40;91.00;;;;;;5084303;28;19916;-69
2021/12/26 05:01:25;;;;;;;;;;;1.40;90.90;;;;;;5082262;28;20416;-69
2021/12/26 05:03:50;;;;;;;;;;;1.50;91.00;;;;;;5085943;28;19909;-70
2021/12/26 05:06:16;;;;;;;;;;;1.40;91.00;;;;;;5082135;28;19924;-69
2021/12/26 05:08:41;;;;;;;;;;;1.40;91.10;;;;;;5085199;28;19908;-69
2021/12/26 05:11:07;;;;;;;;;;;1.40;91.00;;;;;;5086037;28;20535;-70
2021/12/26 05:13:32;;;;;;;;;;;1.40;91.10;;;;;;5085745;28;19939;-69
2021/12/26 05:15:58;;;;;;;;;;;1.40;91.10;;;;;;5082249;28;19999;-69
2021/12/26 05:18:23;;;;;;;;;;;1.40;91.10;;;;;;5084142;28;20011;-69
2021/12/26 05:20:49;;;;;;;;;;;1.40;91.20;;;;;;5084497;28;20354;-69
2021/12/26 05:23:15;;;;;;;;;;;1.40;91.20;;;;;;5086944;28;19923;-69
2021/12/26 05:25:40;;;;;;;;;;;1.40;91.20;;;;;;5081999;28;19916;-69
2021/12/26 05:28:06;;;;;;;;;;;1.30;91.30;;;;;;5099061;28;20467;-69
2021/12/26 05:30:31;;;;;;;;;;;1.30;91.40;;;;;;5093322;28;20360;-69
2021/12/26 05:32:57;;;;;;;;;;;1.30;91.40;;;;;;5084875;28;19923;-69
2021/12/26 05:35:22;;;;;;;;;;;1.30;91.50;;;;;;5088447;28;19920;-69
2021/12/26 05:37:48;;;;;;;;;;;1.30;91.50;;;;;;5083620;28;19920;-69
2021/12/26 05:40:14;;;;;;;;;;;1.20;91.50;;;;;;5101592;28;20517;-70
2021/12/26 05:42:40;;;;;;;;;;;1.30;91.50;;;;;;5083106;28;19927;-69
2021/12/26 05:45:06;;;;;;;;;;;1.20;91.80;;;;;;5085654;28;19916;-69
2021/12/26 05:47:32;;;;;;;;;;;1.20;91.50;;;;;;5088487;28;19968;-69
2021/12/26 05:49:58;;;;;;;;;;;1.20;91.50;;;;;;5081092;28;20016;-69
2021/12/26 05:52:24;;;;;;;;;;;1.20;91.50;;;;;;5089002;28;19920;-69
2021/12/26 05:54:49;;;;;;;;;;;1.20;91.50;;;;;;5086269;28;19916;-69
2021/12/26 05:57:15;;;;;;;;;;;1.20;91.50;;;;;;5089286;28;20005;-69
2021/12/26 05:59:41;;;;;;;;;;;1.20;91.50;;;;;;5082587;28;19912;-69
2021/12/26 06:02:06;;;;;;;;;;;1.20;91.50;;;;;;5086990;28;19912;-69
2021/12/26 06:04:32;;;;;;;;;;;1.30;91.50;;;;;;5082244;28;20484;-69
2021/12/26 06:06:58;;;;;;;;;;;1.20;91.50;;;;;;5085365;28;19931;-69
2021/12/26 06:09:24;;;;;;;;;;;1.20;91.50;;;;;;5080590;28;19940;-69
2021/12/26 06:11:49;;;;;;;;;;;1.20;91.50;;;;;;5085300;28;19916;-70
2021/12/26 06:14:15;;;;;;;;;;;1.30;91.50;;;;;;5086842;28;20483;-69
2021/12/26 06:16:40;;;;;;;;;;;1.20;91.50;;;;;;5090540;28;19916;-69
2021/12/26 06:19:06;;;;;;;;;;;1.20;91.50;;;;;;5075961;28;19915;-69
2021/12/26 06:21:31;;;;;;;;;;;1.30;91.50;;;;;;5089997;28;19916;-69
2021/12/26 06:23:57;;;;;;;;;;;1.20;91.50;;;;;;5088781;28;19912;-69
2021/12/26 06:26:24;;;;;;;;;;;1.20;91.50;;;;;;5081084;28;19923;-69
2021/12/26 06:28:50;;;;;;;;;;;1.30;91.40;;;;;;5079187;28;20004;-69
2021/12/26 06:31:16;;;;;;;;;;;1.20;91.50;;;;;;5082197;28;20054;-69
2021/12/26 06:33:42;;;;;;;;;;;1.20;91.50;;;;;;5081338;28;19916;-69
2021/12/26 06:36:08;;;;;;;;;;;1.20;91.50;;;;;;5077524;28;20489;-69
2021/12/26 06:38:34;;;;;;;;;;;1.20;91.50;;;;;;5096675;28;19917;-69
2021/12/26 06:41:00;;;;;;;;;;;1.30;91.50;;;;;;5092526;28;19942;-69
2021/12/26 06:43:25;;;;;;;;;;;1.20;91.50;;;;;;5081074;28;19966;-69
2021/12/26 06:45:52;;;;;;;;;;;1.20;91.50;;;;;;5079457;28;19912;-69
2021/12/26 06:48:18;;;;;;;;;;;1.20;91.50;;;;;;5081385;28;19919;-69
2021/12/26 06:50:44;;;;;;;;;;;1.30;91.50;;;;;;5079777;28;20292;-69
2021/12/26 06:53:11;;;;;;;;;;;1.30;91.50;;;;;;5084070;28;19913;-70
2021/12/26 06:55:37;;;;;;;;;;;1.30;91.50;;;;;;5080766;28;19912;-70
2021/12/26 06:58:02;;;;;;;;;;;1.30;91.50;;;;;;5088265;28;19934;-69
2021/12/26 07:00:28;;;;;;;;;;;1.30;91.50;;;;;;5083639;28;20349;-70
2021/12/26 07:02:53;;;;;;;;;;;1.30;91.50;;;;;;5082362;28;19918;-69
2021/12/26 07:05:19;;;;;;;;;;;1.30;91.50;;;;;;5079597;28;19946;-69
2021/12/26 07:07:45;;;;;;;;;;;1.30;91.50;;;;;;5085452;28;19918;-70
2021/12/26 07:10:10;;;;;;;;;;;1.30;91.50;;;;;;5099787;28;19943;-69
2021/12/26 07:12:36;;;;;;;;;;;1.30;91.60;;;;;;5087151;28;19984;-69
2021/12/26 07:15:02;;;;;;;;;;;1.30;91.60;;;;;;5088837;28;19923;-69
2021/12/26 07:17:28;;;;;;;;;;;1.30;91.50;;;;;;5083265;28;20452;-70
2021/12/26 07:19:53;;;;;;;;;;;1.30;91.60;;;;;;5082813;28;19988;-69
2021/12/26 07:22:19;;;;;;;;;;;1.30;91.60;;;;;;5085696;28;20476;-69
2021/12/26 07:24:46;;;;;;;;;;;1.30;91.60;;;;;;5092340;28;19947;-69
2021/12/26 07:27:12;;;;;;;;;;;1.30;91.60;;;;;;5099214;27;20373;-69
2021/12/26 07:29:38;;;;;;;;;;;1.30;91.50;;;;;;5080461;28;19965;-69
2021/12/26 07:32:04;;;;;;;;;;;1.30;91.60;;;;;;5086048;28;20319;-69
2021/12/26 07:34:30;;;;;;;;;;;1.30;91.60;;;;;;5094243;28;19955;-70
2021/12/26 07:36:55;;;;;;;;;;;1.30;91.50;;;;;;5086662;28;19940;-69
2021/12/26 07:39:21;;;;;;;;;;;1.30;91.50;;;;;;5084210;28;20163;-69
2021/12/26 07:41:46;;;;;;;;;;;1.30;91.60;;;;;;5085955;28;19913;-69
2021/12/26 07:44:12;;;;;;;;;;;1.30;91.50;;;;;;5080263;28;19926;-69
2021/12/26 07:46:37;;;;;;;;;;;1.30;91.50;;;;;;5081220;28;19970;-69
2021/12/26 07:49:03;;;;;;;;;;;1.30;91.50;;;;;;5093474;28;20019;-70
2021/12/26 07:51:28;;;;;;;;;;;1.30;91.50;;;;;;5085935;28;20471;-69
2021/12/26 07:53:59;;;;;;;;;;;1.30;91.50;;;;;;5085721;28;20281;-69
2021/12/26 07:56:24;;;;;;;;;;;1.30;91.50;;;;;;5071554;28;19920;-69
2021/12/26 07:58:50;;;;;;;;;;;1.30;91.50;;;;;;5084152;28;19990;-69
2021/12/26 08:01:15;;;;;;;;;;;1.30;91.50;;;;;;5083432;28;19920;-69
2021/12/26 08:03:41;;;;;;;;;;;1.30;91.60;;;;;;5085164;28;20482;-69
2021/12/26 08:06:07;;;;;;;;;;;1.30;91.50;;;;;;5084952;28;19962;-69
2021/12/26 08:08:33;;;;;;;;;;;1.30;91.50;;;;;;5086165;28;19920;-70
2021/12/26 08:10:58;;;;;;;;;;;1.30;91.50;;;;;;5087188;28;19921;-69
2021/12/26 08:13:24;;;;;;;;;;;1.30;91.50;;;;;;5087765;28;19920;-69
2021/12/26 08:15:50;;;;;;;;;;;1.30;91.50;;;;;;5081335;28;20003;-69
2021/12/26 08:18:15;;;;;;;;;;;1.30;91.50;;;;;;5086581;28;20015;-69
2021/12/26 08:20:41;;;;;;;;;;;1.40;91.50;;;;;;5079309;28;19913;-70
2021/12/26 08:23:06;;;;;;;;;;;1.40;91.60;;;;;;5090068;28;20354;-69
2021/12/26 08:25:32;;;;;;;;;;;1.40;91.60;;;;;;5087678;28;19916;-69
2021/12/26 08:27:57;;;;;;;;;;;1.40;91.60;;;;;;5090212;28;19947;-69
2021/12/26 08:30:24;;;;;;;;;;;1.40;91.60;;;;;;5088003;28;20341;-69
2021/12/26 08:32:53;;;;;;;;;;;1.40;91.60;;;;;;5086619;28;19973;-69
2021/12/26 08:35:19;;;;;;;;;;;1.40;91.60;;;;;;5084481;28;19920;-69
2021/12/26 08:37:46;;;;;;;;;;;1.40;91.50;;;;;;5086585;28;19956;-69
2021/12/26 08:40:13;;;;;;;;;;;1.40;91.60;;;;;;5081584;28;20395;-69
2021/12/26 08:42:38;;;;;;;;;;;1.40;91.60;;;;;;5092467;28;19912;-69
2021/12/26 08:45:04;;;;;;;;;;;1.40;91.60;;;;;;5088385;28;20007;-69
2021/12/26 08:47:29;;;;;;;;;;;1.50;91.60;;;;;;5085465;28;19926;-69
2021/12/26 08:49:55;;;;;;;;;;;1.40;91.90;;;;;;5081026;28;19949;-69
2021/12/26 08:52:21;;;;;;;;;;;1.40;91.50;;;;;;5086727;28;19912;-69
2021/12/26 08:54:46;;;;;;;;;;;1.50;91.60;;;;;;5084030;28;19920;-69
2021/12/26 08:57:12;;;;;;;;;;;1.50;91.60;;;;;;5085622;28;19920;-69
2021/12/26 08:59:38;;;;;;;;;;;1.50;91.60;;;;;;5082966;28;19920;-69
2021/12/26 09:02:07;;;;;;;;;;;1.50;91.60;;;;;;5084590;28;19917;-69
2021/12/26 09:04:33;;;;;;;;;;;1.50;91.60;;;;;;5087041;28;19916;-69
2021/12/26 09:06:58;;;;;;;;;;;1.50;91.60;;;;;;5083404;28;19927;-69
2021/12/26 09:09:25;;;;;;;;;;;1.50;91.60;;;;;;5085724;28;19920;-69
2021/12/26 09:11:51;;;;;;;;;;;1.50;91.60;;;;;;5084158;28;19912;-69
2021/12/26 09:14:17;;;;;;;;;;;1.50;91.60;;;;;;5088314;28;19912;-69
2021/12/26 09:16:42;;;;;;;;;;;1.50;91.50;;;;;;5081322;28;19920;-69
2021/12/26 09:19:08;;;;;;;;;;;1.60;91.50;;;;;;5086109;28;20003;-70
2021/12/26 09:21:35;;;;;;;;;;;1.60;91.50;;;;;;5085738;28;20643;-69
2021/12/26 09:24:01;;;;;;;;;;;1.60;91.50;;;;;;5086490;28;19922;-70
2021/12/26 09:26:26;;;;;;;;;;;1.60;91.50;;;;;;5085275;28;20445;-69
2021/12/26 09:28:52;;;;;;;;;;;1.70;91.50;;;;;;5091204;28;19964;-69
2021/12/26 09:31:17;;;;;;;;;;;1.60;91.50;;;;;;5089798;28;19915;-69
2021/12/26 09:33:43;;;;;;;;;;;1.70;91.50;;;;;;5082772;28;19994;-70
2021/12/26 09:36:08;;;;;;;;;;;1.70;91.50;;;;;;5088963;28;19947;-69
2021/12/26 09:38:34;;;;;;;;;;;1.70;91.50;;;;;;5087877;28;20288;-69
2021/12/26 09:41:00;;;;;;;;;;;1.70;91.50;;;;;;5090533;27;20304;-70
2021/12/26 09:43:25;;;;;;;;;;;1.70;91.50;;;;;;5086058;28;20327;-69
2021/12/26 09:45:51;;;;;;;;;;;1.70;91.50;;;;;;5087708;28;20339;-69
2021/12/26 09:48:17;;;;;;;;;;;1.70;91.50;;;;;;5082263;28;19938;-69
2021/12/26 09:50:42;;;;;;;;;;;1.70;91.50;;;;;;5088012;28;19917;-70
2021/12/26 09:53:08;;;;;;;;;;;1.80;91.50;;;;;;5079499;28;19919;-70
2021/12/26 09:55:34;;;;;;;;;;;1.80;91.50;;;;;;5102742;27;19927;-69
2021/12/26 09:57:59;;;;;;;;;;;1.80;91.50;;;;;;5078085;28;19958;-69
2021/12/26 10:00:25;;;;;;;;;;;1.80;91.50;;;;;;5085158;28;20357;-69
2021/12/26 10:03:09;;;;;;;;;;;1.80;91.40;;;;;;5090100;28;19916;-69
2021/12/26 10:05:58;;;;;;;;;;;1.90;91.50;;;;;;5087019;28;20379;-69
2021/12/26 10:08:24;;;;;;;;;;;1.90;91.40;;;;;;5074908;28;19912;-69
2021/12/26 10:11:07;;;;;;;;;;;1.90;91.40;;;;;;5085066;28;19935;-69
2021/12/26 10:13:39;;;;;;;;;;;1.90;91.70;;;;;;5076540;28;19920;-70
2021/12/26 10:16:04;;;;;;;;;;;2.00;91.40;;;;;;5087136;28;19914;-69
2021/12/26 10:18:30;;;;;;;;;;;2.00;91.40;;;;;;5080130;28;19912;-69
2021/12/26 10:20:55;;;;;;;;;;;2.00;91.40;;;;;;5089908;28;19945;-69
2021/12/26 10:23:28;;;;;;;;;;;2.00;91.40;;;;;;5084726;28;20365;-69
2021/12/26 10:25:53;;;;;;;;;;;2.00;91.40;;;;;;5087131;28;20273;-69
2021/12/26 10:28:19;;;;;;;;;;;2.00;91.40;;;;;;5085632;28;19924;-69
2021/12/26 10:30:45;;;;;;;;;;;2.00;91.40;;;;;;5100936;27;20534;-69
2021/12/26 10:33:10;;;;;;;;;;;2.10;91.40;;;;;;5081388;28;19961;-70
2021/12/26 10:35:36;;;;;;;;;;;2.10;91.40;;;;;;5083381;28;20280;-69
2021/12/26 10:38:01;;;;;;;;;;;2.10;91.40;;;;;;5086418;28;19926;-69
2021/12/26 10:40:28;;;;;;;;;;;2.10;91.40;;;;;;5083342;28;20568;-69
2021/12/26 10:42:55;;;;;;;;;;;2.10;91.40;;;;;;5091797;28;19987;-69
2021/12/26 10:45:23;;;;;;;;;;;2.10;91.50;;;;;;5087429;28;20270;-69
2021/12/26 10:47:51;;;;;;;;;;;2.10;91.50;;;;;;5087171;28;20515;-69
2021/12/26 10:50:19;;;;;;;;;;;2.10;91.50;;;;;;5096472;27;19912;-69
2021/12/26 10:52:48;;;;;;;;;;;2.10;91.60;;;;;;5077363;28;19912;-69
2021/12/26 10:55:15;;;;;;;;;;;2.10;91.60;;;;;;5083508;28;20360;-69
2021/12/26 10:57:40;;;;;;;;;;;2.10;91.80;;;;;;5079646;28;20025;-69
2021/12/26 11:00:08;;;;;;;;;;;2.10;91.50;;;;;;5081868;28;19916;-70
2021/12/26 11:02:34;;;;;;;;;;;2.10;91.50;;;;;;5081743;28;19908;-69
2021/12/26 11:05:29;;;;;;;;;;;2.20;91.50;;;;;;5083581;28;19919;-69
2021/12/26 11:08:00;;;;;;;;;;;2.20;91.50;;;;;;5074152;28;20034;-69
2021/12/26 11:10:28;;;;;;;;;;;2.20;91.50;;;;;;5085279;28;20459;-69
2021/12/26 11:12:54;;;;;;;;;;;2.20;91.50;;;;;;5085529;28;19912;-69
2021/12/26 11:15:22;;;;;;;;;;;2.30;91.50;;;;;;5099661;28;19912;-69
2021/12/26 11:17:53;;;;;;;;;;;2.20;91.50;;;;;;5076272;28;19916;-69
2021/12/26 11:20:23;;;;;;;;;;;2.30;91.60;;;;;;5084760;28;19916;-69
2021/12/26 11:22:49;;;;;;;;;;;2.30;91.50;;;;;;5084161;28;19916;-69
2021/12/26 11:25:15;;;;;;;;;;;2.30;91.50;;;;;;5088673;28;19908;-69
2021/12/26 11:27:40;;;;;;;;;;;2.40;91.50;;;;;;5080177;28;19932;-69
2021/12/26 11:30:07;;;;;;;;;;;2.40;91.60;;;;;;5088551;28;19920;-69
2021/12/26 11:32:33;;;;;;;;;;;2.40;91.50;;;;;;5079826;28;19951;-69
2021/12/26 11:34:59;;;;;;;;;;;2.40;91.50;;;;;;5088751;28;19920;-69
2021/12/26 11:37:25;;;;;;;;;;;2.40;91.60;;;;;;5080533;28;19913;-69
2021/12/26 11:39:51;;;;;;;;;;;2.40;91.50;;;;;;5086059;28;19991;-69
2021/12/26 11:42:32;;;;;;;;;;;2.40;91.60;;;;;;5080375;28;19916;-69
2021/12/26 11:45:10;;;;;;;;;;;2.50;91.50;;;;;;5086861;28;19924;-70
2021/12/26 11:47:46;;;;;;;;;;;2.50;91.60;;;;;;5081210;28;19945;-69
2021/12/26 11:50:23;;;;;;;;;;;2.50;91.90;;;;;;5087887;28;19982;-69
2021/12/26 11:52:58;;;;;;;;;;;2.50;91.70;;;;;;5081935;28;20003;-70
2021/12/26 11:55:23;;;;;;;;;;;2.50;91.60;;;;;;5086982;28;20018;-70
2021/12/26 11:58:09;;;;;;;;;;;2.60;91.60;;;;;;5085673;28;20035;-70
2021/12/26 12:00:37;;;;;;;;;;;2.60;91.50;;;;;;5080682;28;19926;-70
2021/12/26 12:03:05;;;;;;;;;;;2.60;91.60;;;;;;5080749;28;19977;-69
2021/12/26 12:05:30;;;;;;;;;;;2.60;91.60;;;;;;5087679;28;19919;-70
2021/12/26 12:07:57;;;;;;;;;;;2.60;91.50;;;;;;5082197;28;20429;-69
2021/12/26 12:10:29;;;;;;;;;;;2.70;91.50;;;;;;5092480;28;19920;-69
2021/12/26 12:12:54;;;;;;;;;;;2.70;91.60;;;;;;5073431;28;19920;-69
2021/12/26 12:15:40;;;;;;;;;;;2.70;91.60;;;;;;5088815;28;19977;-69
2021/12/26 12:18:10;;;;;;;;;;;2.70;91.60;;;;;;5079605;28;20560;-69
2021/12/26 12:20:36;;;;;;;;;;;2.70;91.60;;;;;;5088065;28;19908;-69
2021/12/26 12:23:04;;;;;;;;;;;2.70;91.60;;;;;;5090721;28;19916;-69
2021/12/26 12:25:33;;;;;;;;;;;2.70;91.60;;;;;;5085461;28;20354;-69
2021/12/26 12:28:21;;;;;;;;;;;2.80;91.60;;;;;;5078654;28;20003;-69
2021/12/26 12:30:58;;;;;;;;;;;2.80;91.60;;;;;;5082178;28;19922;-69
2021/12/26 12:33:25;;;;;;;;;;;2.80;91.60;;;;;;5081740;28;20301;-69
2021/12/26 12:35:53;;;;;;;;;;;2.80;91.60;;;;;;5084260;28;19912;-69
2021/12/26 12:38:26;;;;;;;;;;;2.80;91.60;;;;;;5082877;28;19922;-70
2021/12/26 12:40:52;;;;;;;;;;;2.80;91.70;;;;;;5082214;28;19958;-69
2021/12/26 12:43:22;;;;;;;;;;;2.80;91.70;;;;;;5079591;28;20323;-70
2021/12/26 12:45:54;;;;;;;;;;;2.80;91.60;;;;;;5077071;28;20254;-69
2021/12/26 12:48:27;;;;;;;;;;;2.90;91.70;;;;;;5079641;28;19920;-69
2021/12/26 12:50:55;;;;;;;;;;;2.80;91.80;;;;;;5080273;28;19920;-69
2021/12/26 12:53:36;;;;;;;;;;;2.80;91.80;;;;;;5078828;28;20249;-69
2021/12/26 12:56:02;;;;;;;;;;;2.90;91.90;;;;;;5081756;28;20440;-70
2021/12/26 12:58:31;;;;;;;;;;;2.90;91.80;;;;;;5087895;28;20041;-70
2021/12/26 13:00:58;;;;;;;;;;;2.90;91.90;;;;;;5078231;28;20393;-69
2021/12/26 13:03:23;;;;;;;;;;;2.90;91.90;;;;;;5082311;28;19966;-69
2021/12/26 13:05:49;;;;;;;;;;;2.90;91.90;;;;;;5083227;28;20759;-69
2021/12/26 13:08:17;;;;;;;;;;;2.90;91.90;;;;;;5084700;28;19916;-69
2021/12/26 13:10:42;;;;;;;;;;;3.00;91.90;;;;;;5080843;28;20007;-69
2021/12/26 13:13:09;;;;;;;;;;;3.00;91.90;;;;;;5082342;28;20049;-70
2021/12/26 13:15:46;;;;;;;;;;;3.00;92.00;;;;;;5085798;28;20022;-70
2021/12/26 13:18:12;;;;;;;;;;;2.90;92.00;;;;;;5081714;28;20653;-69
2021/12/26 13:20:37;;;;;;;;;;;3.00;92.10;;;;;;5084753;28;20011;-69
2021/12/26 13:23:04;;;;;;;;;;;3.00;92.10;;;;;;5081194;28;19912;-69
2021/12/26 13:25:38;;;;;;;;;;;3.00;92.10;;;;;;5089536;28;19908;-69
2021/12/26 13:28:25;;;;;;;;;;;3.00;92.30;;;;;;5084392;28;20292;-69
2021/12/26 13:30:53;;;;;;;;;;;3.00;92.00;;;;;;5082673;28;19924;-69
2021/12/26 13:33:34;;;;;;;;;;;2.90;92.00;;;;;;5087551;28;20007;-69
2021/12/26 13:36:00;;;;;;;;;;;2.90;92.10;;;;;;5085991;28;20579;-69
2021/12/26 13:38:32;;;;;;;;;;;2.90;92.20;;;;;;5089192;28;20010;-70
2021/12/26 13:40:57;;;;;;;;;;;2.90;92.20;;;;;;5102781;27;19908;-69
2021/12/26 13:43:27;;;;;;;;;;;3.00;92.20;;;;;;5082276;28;19916;-69
2021/12/26 13:45:53;;;;;;;;;;;2.90;92.20;;;;;;5085006;28;19959;-69
2021/12/26 13:48:26;;;;;;;;;;;2.90;92.20;;;;;;5082865;28;20210;-69
2021/12/26 13:50:51;;;;;;;;;;;3.00;92.30;;;;;;5083264;28;19909;-69
2021/12/26 13:53:17;;;;;;;;;;;3.00;92.30;;;;;;5082916;28;20991;-69
2021/12/26 13:55:42;;;;;;;;;;;2.90;92.30;;;;;;5083456;28;19980;-69
2021/12/26 13:58:09;;;;;;;;;;;3.00;92.30;;;;;;5082939;28;19920;-69
2021/12/26 14:00:45;;;;;;;;;;;2.90;92.20;;;;;;5092336;28;19954;-69
2021/12/26 14:03:11;;;;;;;;;;;3.00;92.30;;;;;;5081081;28;20320;-70
2021/12/26 14:05:37;;;;;;;;;;;2.90;92.30;;;;;;5085400;28;19912;-69
2021/12/26 14:08:11;;;;;;;;;;;2.90;92.30;;;;;;5075878;28;19967;-70
2021/12/26 14:10:37;;;;;;;;;;;3.00;92.30;;;;;;5086188;28;19986;-69
2021/12/26 14:13:05;;;;;;;;;;;3.00;92.40;;;;;;5081960;28;20376;-69
2021/12/26 14:15:34;;;;;;;;;;;3.00;92.40;;;;;;5081213;28;19915;-69
2021/12/26 14:18:04;;;;;;;;;;;3.00;92.40;;;;;;5082729;28;19948;-69
2021/12/26 14:20:48;;;;;;;;;;;3.00;92.40;;;;;;5086667;28;19974;-70
2021/12/26 14:23:25;;;;;;;;;;;3.00;92.40;;;;;;5083886;28;19920;-69
2021/12/26 14:25:53;;;;;;;;;;;3.00;92.40;;;;;;5094503;27;19952;-69
2021/12/26 14:28:19;;;;;;;;;;;3.00;92.40;;;;;;5085342;28;19924;-69
2021/12/26 14:30:46;;;;;;;;;;;3.00;92.40;;;;;;5081351;28;19908;-69
2021/12/26 14:33:12;;;;;;;;;;;3.00;92.50;;;;;;5079557;28;19919;-70